createdAt,value
2017-03-02T00:00:56.042Z,9.34
2017-03-02T00:01:56.053Z,9.37
2017-03-02T00:02:56.156Z,9.41
2017-03-02T00:03:56.222Z,9.39
2017-03-02T00:04:56.525Z,9.36
2017-03-02T00:05:56.530Z,9.34
2017-03-02T00:06:56.536Z,9.41
2017-03-02T00:07:56.143Z,9.41
2017-03-02T00:08:56.570Z,9.39
2017-03-02T00:09:56.588Z,9.37
2017-03-02T00:10:56.292Z,9.37
2017-03-02T00:11:56.595Z,9.34
2017-03-02T00:12:56.219Z,9.41
2017-03-02T00:13:56.249Z,9.4
2017-03-02T00:14:56.244Z,9.39
2017-03-02T00:15:56.272Z,9.34
2017-03-02T00:16:56.296Z,9.4
2017-03-02T00:17:56.777Z,9.36
2017-03-02T00:18:56.791Z,9.37
2017-03-02T00:19:56.395Z,9.34
2017-03-02T00:20:56.339Z,9.39
2017-03-02T00:21:56.749Z,9.36
2017-03-02T00:22:56.755Z,9.44
2017-03-02T00:23:56.385Z,9.31
2017-03-02T00:24:56.796Z,9.37
2017-03-02T00:25:56.801Z,9.32
2017-03-02T00:26:56.431Z,9.29
2017-03-02T00:27:56.434Z,9.4
2017-03-02T00:28:56.868Z,9.34
2017-03-02T00:29:56.873Z,9.29
2017-03-02T00:30:56.889Z,9.4
2017-03-02T00:31:56.893Z,9.31
2017-03-02T00:32:56.512Z,9.37
2017-03-02T00:33:56.926Z,9.29
2017-03-02T00:34:56.939Z,9.28
2017-03-02T00:35:56.961Z,9.39
2017-03-02T00:36:56.966Z,9.28
2017-03-02T00:37:56.983Z,9.31
2017-03-02T00:38:57.007Z,9.25
2017-03-02T00:39:57.014Z,9.37
2017-03-02T00:40:57.096Z,9.36
2017-03-02T00:41:57.074Z,9.32
2017-03-02T00:42:57.084Z,9.34
2017-03-02T00:43:57.102Z,9.34
2017-03-02T00:44:57.087Z,9.34
2017-03-02T00:45:57.096Z,9.34
2017-03-02T00:46:57.112Z,9.28
2017-03-02T00:47:57.129Z,9.26
2017-03-02T00:48:57.145Z,9.34
2017-03-02T00:49:57.153Z,9.21
2017-03-02T00:50:57.169Z,9.29
2017-03-02T00:51:57.183Z,9.31
2017-03-02T00:52:57.200Z,9.29
2017-03-02T00:53:57.228Z,9.19
2017-03-02T00:54:57.224Z,9.23
2017-03-02T00:55:57.241Z,9.28
2017-03-02T00:56:57.253Z,9.23
2017-03-02T00:57:57.289Z,9.23
2017-03-02T00:58:57.284Z,9.25
2017-03-02T00:59:57.305Z,9.28
2017-03-02T01:00:57.320Z,9.23
2017-03-02T01:01:57.345Z,9.26
2017-03-02T01:02:57.580Z,9.25
2017-03-02T01:03:57.466Z,9.28
2017-03-02T01:04:57.370Z,9.23
2017-03-02T01:05:57.454Z,9.25
2017-03-02T01:06:57.436Z,9.23
2017-03-02T01:07:57.446Z,9.21
2017-03-02T01:08:57.491Z,9.29
2017-03-02T01:09:57.089Z,9.22
2017-03-02T01:10:57.492Z,9.21
2017-03-02T01:11:57.474Z,9.25
2017-03-02T01:12:57.488Z,9.29
2017-03-02T01:13:57.500Z,9.26
2017-03-02T01:14:57.749Z,9.22
2017-03-02T01:15:57.720Z,9.18
2017-03-02T01:16:57.544Z,9.25
2017-03-02T01:17:57.580Z,9.19
2017-03-02T01:18:57.181Z,9.28
2017-03-02T01:19:57.218Z,9.23
2017-03-02T01:20:57.622Z,9.23
2017-03-02T01:21:57.618Z,9.26
2017-03-02T01:22:57.634Z,9.23
2017-03-02T01:23:57.663Z,9.25
2017-03-02T01:24:57.282Z,9.25
2017-03-02T01:25:57.689Z,9.28
2017-03-02T01:26:57.704Z,9.29
2017-03-02T01:27:57.718Z,9.28
2017-03-02T01:28:57.763Z,9.23
2017-03-02T01:29:57.751Z,9.25
2017-03-02T01:30:57.779Z,9.22
2017-03-02T01:31:57.769Z,9.26
2017-03-02T01:32:57.803Z,9.25
2017-03-02T01:33:57.808Z,9.23
2017-03-02T01:34:57.816Z,9.28
2017-03-02T01:35:57.841Z,9.22
2017-03-02T01:36:57.848Z,9.26
2017-03-02T01:37:57.859Z,9.28
2017-03-02T01:38:57.881Z,9.26
2017-03-02T01:39:57.904Z,9.26
2017-03-02T01:40:57.914Z,9.28
2017-03-02T01:41:57.927Z,9.28
2017-03-02T01:42:57.941Z,9.26
2017-03-02T01:43:57.562Z,9.22
2017-03-02T01:44:57.955Z,9.28
2017-03-02T01:45:58.083Z,9.31
2017-03-02T01:46:58.075Z,9.31
2017-03-02T01:47:58.099Z,9.32
2017-03-02T01:48:58.017Z,9.25
2017-03-02T01:49:58.052Z,9.28
2017-03-02T01:50:58.050Z,9.26
2017-03-02T01:51:58.047Z,9.21
2017-03-02T01:52:58.066Z,9.26
2017-03-02T01:53:58.198Z,9.34
2017-03-02T01:54:58.104Z,9.34
2017-03-02T01:55:58.119Z,9.26
2017-03-02T01:56:58.123Z,9.29
2017-03-02T01:57:58.142Z,9.23
2017-03-02T01:58:58.171Z,9.36
2017-03-02T01:59:58.187Z,9.28
2017-03-02T02:00:58.180Z,9.21
2017-03-02T02:01:58.199Z,9.21
2017-03-02T02:02:58.244Z,9.22
2017-03-02T02:03:58.256Z,9.29
2017-03-02T02:04:58.245Z,9.23
2017-03-02T02:05:58.376Z,9.23
2017-03-02T02:06:58.282Z,9.29
2017-03-02T02:07:58.397Z,9.39
2017-03-02T02:08:58.353Z,9.43
2017-03-02T02:09:58.314Z,9.26
2017-03-02T02:10:58.329Z,9.28
2017-03-02T02:11:58.351Z,9.32
2017-03-02T02:12:58.385Z,9.37
2017-03-02T02:13:58.396Z,9.36
2017-03-02T02:14:58.630Z,9.28
2017-03-02T02:15:58.487Z,9.32
2017-03-02T02:16:58.423Z,9.34
2017-03-02T02:17:58.440Z,9.41
2017-03-02T02:18:58.447Z,9.28
2017-03-02T02:19:58.461Z,9.31
2017-03-02T02:20:58.485Z,9.37
2017-03-02T02:21:58.627Z,9.26
2017-03-02T02:22:58.515Z,9.26
2017-03-02T02:23:58.612Z,9.25
2017-03-02T02:24:58.540Z,9.31
2017-03-02T02:25:58.561Z,9.31
2017-03-02T02:26:58.575Z,9.32
2017-03-02T02:27:58.584Z,9.29
2017-03-02T02:28:58.595Z,9.26
2017-03-02T02:29:58.640Z,9.29
2017-03-02T02:30:58.633Z,9.28
2017-03-02T02:31:58.639Z,9.28
2017-03-02T02:32:58.778Z,9.26
2017-03-02T02:33:58.781Z,9.25
2017-03-02T02:34:58.862Z,9.31
2017-03-02T02:35:58.700Z,9.28
2017-03-02T02:36:58.714Z,9.22
2017-03-02T02:37:58.752Z,9.28
2017-03-02T02:38:58.741Z,9.26
2017-03-02T02:39:58.764Z,9.28
2017-03-02T02:40:58.783Z,9.25
2017-03-02T02:41:58.795Z,9.25
2017-03-02T02:42:58.810Z,9.25
2017-03-02T02:43:58.827Z,9.26
2017-03-02T02:44:58.825Z,9.23
2017-03-02T02:45:58.474Z,9.23
2017-03-02T02:46:58.468Z,9.26
2017-03-02T02:47:58.879Z,9.29
2017-03-02T02:48:58.888Z,9.28
2017-03-02T02:49:58.518Z,9.28
2017-03-02T02:50:58.913Z,9.29
2017-03-02T02:51:58.943Z,9.29
2017-03-02T02:52:58.949Z,9.25
2017-03-02T02:53:58.976Z,9.29
2017-03-02T02:54:58.975Z,9.28
2017-03-02T02:55:58.987Z,9.26
2017-03-02T02:56:59.002Z,9.19
2017-03-02T02:57:59.041Z,9.14
2017-03-02T02:58:59.044Z,9.25
2017-03-02T02:59:59.052Z,9.21
2017-03-02T03:00:59.075Z,9.25
2017-03-02T03:01:59.094Z,9.28
2017-03-02T03:02:59.103Z,9.23
2017-03-02T03:03:59.104Z,9.13
2017-03-02T03:04:59.130Z,9.21
2017-03-02T03:05:59.151Z,9.25
2017-03-02T03:06:59.148Z,9.21
2017-03-02T03:07:59.200Z,9.23
2017-03-02T03:08:59.176Z,9.26
2017-03-02T03:09:59.197Z,9.25
2017-03-02T03:10:59.217Z,9.25
2017-03-02T03:11:59.226Z,9.19
2017-03-02T03:12:59.262Z,9.28
2017-03-02T03:13:59.273Z,9.25
2017-03-02T03:14:59.276Z,9.22
2017-03-02T03:15:59.292Z,9.23
2017-03-02T03:16:59.300Z,9.25
2017-03-02T03:17:58.917Z,9.29
2017-03-02T03:18:58.930Z,9.21
2017-03-02T03:19:59.362Z,9.28
2017-03-02T03:20:59.356Z,9.23
2017-03-02T03:21:59.384Z,9.21
2017-03-02T03:22:59.391Z,9.23
2017-03-02T03:23:59.399Z,9.28
2017-03-02T03:24:59.603Z,9.28
2017-03-02T03:25:59.034Z,9.28
2017-03-02T03:26:59.101Z,9.26
2017-03-02T03:27:59.122Z,9.28
2017-03-02T03:28:59.080Z,9.31
2017-03-02T03:29:59.109Z,9.29
2017-03-02T03:30:59.125Z,9.29
2017-03-02T03:31:59.157Z,9.32
2017-03-02T03:32:59.137Z,9.29
2017-03-02T03:33:59.148Z,9.21
2017-03-02T03:34:59.176Z,9.25
2017-03-02T03:35:59.180Z,9.4
2017-03-02T03:36:59.198Z,9.23
2017-03-02T03:37:59.220Z,9.28
2017-03-02T03:38:59.617Z,9.29
2017-03-02T03:39:59.825Z,9.31
2017-03-02T03:40:59.264Z,9.41
2017-03-02T03:41:59.283Z,9.21
2017-03-02T03:42:59.695Z,9.37
2017-03-02T03:43:59.688Z,9.31
2017-03-02T03:44:59.699Z,9.34
2017-03-02T03:45:59.334Z,9.31
2017-03-02T03:46:59.744Z,9.23
2017-03-02T03:47:59.756Z,9.34
2017-03-02T03:48:59.778Z,9.31
2017-03-02T03:49:59.791Z,9.39
2017-03-02T03:50:59.793Z,9.28
2017-03-02T03:51:59.421Z,9.4
2017-03-02T03:52:59.820Z,9.34
2017-03-02T03:53:59.443Z,9.36
2017-03-02T03:54:59.453Z,9.34
2017-03-02T03:55:59.878Z,9.41
2017-03-02T03:56:59.875Z,9.34
2017-03-02T03:57:59.885Z,9.32
2017-03-02T03:58:59.931Z,9.32
2017-03-02T03:59:59.936Z,9.37
2017-03-02T04:00:59.937Z,9.36
2017-03-02T04:01:59.565Z,9.31
2017-03-02T04:02:59.968Z,9.44
2017-03-02T04:03:59.980Z,9.36
2017-03-02T04:05:00.004Z,9.32
2017-03-02T04:06:00.007Z,9.41
2017-03-02T04:06:59.646Z,9.43
2017-03-02T04:08:00.047Z,9.37
2017-03-02T04:09:00.061Z,9.34
2017-03-02T04:10:00.077Z,9.4
2017-03-02T04:11:00.096Z,9.4
2017-03-02T04:11:59.721Z,9.4
2017-03-02T04:13:00.108Z,9.39
2017-03-02T04:14:00.132Z,9.4
2017-03-02T04:15:00.143Z,9.41
2017-03-02T04:16:00.158Z,9.41
2017-03-02T04:17:00.167Z,9.44
2017-03-02T04:18:00.205Z,9.4
2017-03-02T04:19:00.194Z,9.4
2017-03-02T04:20:00.225Z,9.46
2017-03-02T04:20:59.838Z,9.44
2017-03-02T04:22:00.257Z,9.44
2017-03-02T04:23:00.255Z,9.46
2017-03-02T04:24:00.275Z,9.48
2017-03-02T04:25:00.293Z,9.4
2017-03-02T04:26:00.299Z,9.46
2017-03-02T04:27:00.328Z,9.46
2017-03-02T04:28:00.338Z,9.48
2017-03-02T04:29:00.363Z,9.41
2017-03-02T04:30:00.366Z,9.47
2017-03-02T04:31:00.385Z,9.41
2017-03-02T04:32:00.401Z,9.43
2017-03-02T04:33:00.413Z,9.46
2017-03-02T04:34:00.412Z,9.41
2017-03-02T04:35:00.439Z,9.43
2017-03-02T04:36:00.458Z,9.48
2017-03-02T04:37:00.458Z,9.46
2017-03-02T04:38:00.488Z,9.44
2017-03-02T04:39:00.497Z,9.44
2017-03-02T04:40:00.512Z,9.44
2017-03-02T04:41:00.520Z,9.44
2017-03-02T04:42:00.538Z,9.47
2017-03-02T04:43:00.552Z,9.43
2017-03-02T04:44:00.574Z,9.43
2017-03-02T04:45:00.576Z,9.4
2017-03-02T04:46:00.596Z,9.43
2017-03-02T04:47:00.616Z,9.48
2017-03-02T04:48:00.623Z,9.4
2017-03-02T04:49:00.639Z,9.43
2017-03-02T04:50:00.653Z,9.48
2017-03-02T04:51:00.661Z,9.43
2017-03-02T04:52:00.699Z,9.41
2017-03-02T04:53:00.704Z,9.46
2017-03-02T04:54:00.716Z,9.43
2017-03-02T04:55:00.725Z,9.43
2017-03-02T04:56:00.752Z,9.43
2017-03-02T04:57:00.748Z,9.43
2017-03-02T04:58:00.780Z,9.4
2017-03-02T04:59:00.798Z,9.4
2017-03-02T05:00:00.795Z,9.37
2017-03-02T05:01:00.813Z,9.39
2017-03-02T05:02:00.837Z,9.43
2017-03-02T05:03:00.849Z,9.32
2017-03-02T05:04:00.866Z,9.4
2017-03-02T05:05:00.867Z,9.32
2017-03-02T05:06:00.901Z,9.36
2017-03-02T05:07:00.903Z,9.34
2017-03-02T05:08:00.919Z,9.36
2017-03-02T05:09:00.923Z,9.25
2017-03-02T05:10:00.945Z,9.39
2017-03-02T05:11:00.955Z,9.32
2017-03-02T05:12:00.974Z,9.23
2017-03-02T05:13:00.985Z,9.32
2017-03-02T05:14:01.002Z,9.4
2017-03-02T05:15:01.035Z,9.28
2017-03-02T05:16:01.039Z,9.36
2017-03-02T05:17:01.050Z,9.25
2017-03-02T05:18:01.081Z,9.32
2017-03-02T05:19:01.080Z,9.34
2017-03-02T05:20:01.088Z,9.29
2017-03-02T05:21:01.103Z,9.26
2017-03-02T05:22:01.132Z,9.29
2017-03-02T05:23:00.750Z,9.25
2017-03-02T05:24:01.170Z,9.29
2017-03-02T05:25:01.166Z,9.31
2017-03-02T05:26:01.177Z,9.26
2017-03-02T05:27:01.232Z,9.25
2017-03-02T05:28:01.206Z,9.29
2017-03-02T05:29:01.224Z,9.29
2017-03-02T05:30:00.852Z,9.29
2017-03-02T05:31:01.252Z,9.26
2017-03-02T05:32:01.378Z,9.28
2017-03-02T05:33:01.507Z,9.29
2017-03-02T05:34:01.290Z,9.25
2017-03-02T05:35:01.307Z,9.28
2017-03-02T05:36:00.929Z,9.26
2017-03-02T05:37:01.346Z,9.26
2017-03-02T05:38:01.423Z,9.23
2017-03-02T05:39:01.375Z,9.23
2017-03-02T05:40:01.386Z,9.25
2017-03-02T05:41:01.425Z,9.26
2017-03-02T05:42:01.425Z,9.26
2017-03-02T05:43:01.430Z,9.23
2017-03-02T05:44:01.445Z,9.22
2017-03-02T05:45:01.467Z,9.26
2017-03-02T05:46:01.486Z,9.21
2017-03-02T05:47:01.493Z,9.25
2017-03-02T05:48:01.510Z,9.25
2017-03-02T05:49:01.609Z,9.31
2017-03-02T05:50:01.528Z,9.28
2017-03-02T05:51:01.548Z,9.25
2017-03-02T05:52:01.176Z,9.23
2017-03-02T05:53:01.609Z,9.21
2017-03-02T05:54:01.602Z,9.25
2017-03-02T05:55:01.615Z,9.25
2017-03-02T05:56:01.623Z,9.28
2017-03-02T05:57:01.644Z,9.23
2017-03-02T05:58:01.755Z,9.28
2017-03-02T05:59:01.671Z,9.25
2017-03-02T06:00:01.680Z,9.28
2017-03-02T06:01:01.807Z,9.28
2017-03-02T06:02:01.912Z,9.23
2017-03-02T06:03:01.807Z,9.31
2017-03-02T06:04:01.742Z,9.26
2017-03-02T06:05:01.780Z,9.31
2017-03-02T06:06:01.762Z,9.28
2017-03-02T06:07:01.773Z,9.31
2017-03-02T06:08:01.792Z,9.36
2017-03-02T06:09:01.801Z,9.23
2017-03-02T06:10:01.826Z,9.26
2017-03-02T06:11:01.843Z,9.25
2017-03-02T06:12:01.848Z,9.25
2017-03-02T06:13:01.873Z,9.21
2017-03-02T06:14:01.874Z,9.37
2017-03-02T06:15:01.892Z,9.37
2017-03-02T06:16:02.043Z,9.37
2017-03-02T06:17:02.030Z,9.39
2017-03-02T06:18:02.037Z,9.4
2017-03-02T06:19:02.060Z,9.36
2017-03-02T06:20:01.970Z,9.29
2017-03-02T06:21:01.976Z,9.36
2017-03-02T06:22:02.053Z,9.36
2017-03-02T06:23:02.125Z,9.39
2017-03-02T06:24:02.134Z,9.32
2017-03-02T06:25:02.151Z,9.29
2017-03-02T06:26:02.073Z,9.32
2017-03-02T06:27:02.080Z,9.36
2017-03-02T06:28:01.687Z,9.34
2017-03-02T06:29:02.098Z,9.36
2017-03-02T06:30:02.109Z,9.32
2017-03-02T06:31:02.127Z,9.36
2017-03-02T06:32:02.135Z,9.29
2017-03-02T06:33:02.146Z,9.36
2017-03-02T06:34:02.180Z,9.32
2017-03-02T06:35:02.197Z,9.36
2017-03-02T06:36:02.195Z,9.39
2017-03-02T06:37:02.215Z,9.37
2017-03-02T06:38:02.238Z,9.32
2017-03-02T06:39:02.256Z,9.34
2017-03-02T06:40:02.262Z,9.26
2017-03-02T06:41:02.279Z,9.37
2017-03-02T06:42:02.297Z,9.37
2017-03-02T06:43:02.303Z,9.26
2017-03-02T06:44:02.314Z,9.28
2017-03-02T06:45:02.440Z,9.34
2017-03-02T06:46:02.338Z,9.25
2017-03-02T06:47:02.357Z,9.25
2017-03-02T06:48:02.401Z,9.25
2017-03-02T06:49:02.379Z,9.23
2017-03-02T06:50:02.419Z,9.23
2017-03-02T06:51:02.424Z,9.23
2017-03-02T06:52:02.427Z,9.25
2017-03-02T06:53:02.451Z,9.23
2017-03-02T06:54:02.474Z,9.22
2017-03-02T06:55:02.485Z,9.19
2017-03-02T06:56:02.487Z,9.25
2017-03-02T06:57:02.511Z,9.16
2017-03-02T06:58:02.514Z,9.14
2017-03-02T06:59:02.547Z,9.23
2017-03-02T07:00:02.550Z,9.13
2017-03-02T07:01:02.567Z,9.16
2017-03-02T07:02:02.582Z,9.21
2017-03-02T07:03:02.597Z,9.11
2017-03-02T07:04:02.608Z,9.11
2017-03-02T07:05:02.629Z,9.14
2017-03-02T07:06:02.634Z,9.19
2017-03-02T07:07:02.655Z,9.16
2017-03-02T07:08:02.659Z,9.18
2017-03-02T07:09:02.684Z,9.13
2017-03-02T07:10:02.700Z,9.14
2017-03-02T07:11:02.882Z,9.16
2017-03-02T07:12:02.714Z,9.14
2017-03-02T07:13:02.732Z,9.13
2017-03-02T07:14:02.747Z,9.1
2017-03-02T07:15:02.369Z,9.16
2017-03-02T07:16:02.787Z,9.21
2017-03-02T07:17:02.911Z,9.1
2017-03-02T07:18:02.926Z,9.1
2017-03-02T07:19:02.851Z,9.06
2017-03-02T07:20:02.850Z,9.11
2017-03-02T07:21:02.950Z,9.1
2017-03-02T07:22:02.481Z,9.1
2017-03-02T07:23:02.956Z,9.08
2017-03-02T07:24:02.498Z,9.08
2017-03-02T07:25:02.514Z,9.1
2017-03-02T07:26:02.932Z,9.08
2017-03-02T07:27:02.952Z,9.06
2017-03-02T07:28:02.950Z,9.06
2017-03-02T07:29:02.967Z,9.1
2017-03-02T07:30:02.985Z,9.1
2017-03-02T07:31:02.608Z,9.03
2017-03-02T07:32:03.004Z,9.08
2017-03-02T07:33:03.134Z,9.1
2017-03-02T07:34:03.222Z,9.13
2017-03-02T07:35:02.968Z,9.13
2017-03-02T07:36:03.249Z,9.18
2017-03-02T07:37:03.246Z,9.13
2017-03-02T07:38:03.257Z,9.22
2017-03-02T07:39:03.133Z,9.21
2017-03-02T07:40:03.185Z,9.18
2017-03-02T07:41:03.136Z,9.18
2017-03-02T07:42:03.179Z,9.18
2017-03-02T07:43:03.170Z,9.21
2017-03-02T07:44:03.208Z,9.18
2017-03-02T07:45:03.206Z,9.19
2017-03-02T07:46:02.831Z,9.18
2017-03-02T07:47:03.233Z,9.22
2017-03-02T07:48:02.858Z,9.18
2017-03-02T07:49:03.274Z,9.16
2017-03-02T07:50:03.104Z,9.23
2017-03-02T07:51:03.378Z,9.28
2017-03-02T07:52:02.943Z,9.25
2017-03-02T07:53:03.321Z,9.26
2017-03-02T07:54:03.344Z,9.29
2017-03-02T07:55:03.349Z,9.23
2017-03-02T07:56:02.977Z,9.21
2017-03-02T07:57:03.379Z,9.32
2017-03-02T07:58:03.390Z,9.29
2017-03-02T07:59:03.513Z,9.4
2017-03-02T08:00:03.414Z,9.41
2017-03-02T08:01:03.427Z,9.46
2017-03-02T08:02:03.464Z,9.46
2017-03-02T08:03:03.468Z,9.41
2017-03-02T08:04:03.498Z,9.48
2017-03-02T08:05:03.486Z,9.48
2017-03-02T08:06:03.133Z,9.4
2017-03-02T08:07:03.632Z,9.46
2017-03-02T08:08:03.555Z,9.46
2017-03-02T08:09:03.587Z,9.47
2017-03-02T08:10:03.172Z,9.41
2017-03-02T08:11:03.607Z,9.46
2017-03-02T08:12:03.629Z,9.37
2017-03-02T08:13:03.618Z,9.4
2017-03-02T08:14:03.619Z,9.4
2017-03-02T08:15:03.642Z,9.37
2017-03-02T08:16:03.657Z,9.4
2017-03-02T08:17:03.668Z,9.37
2017-03-02T08:18:03.677Z,9.31
2017-03-02T08:19:03.687Z,9.36
2017-03-02T08:20:03.721Z,9.34
2017-03-02T08:21:03.719Z,9.37
2017-03-02T08:22:03.788Z,9.4
2017-03-02T08:23:03.769Z,9.4
2017-03-02T08:24:03.401Z,9.36
2017-03-02T08:25:03.391Z,9.39
2017-03-02T08:26:03.795Z,9.46
2017-03-02T08:27:03.820Z,9.44
2017-03-02T08:28:03.832Z,9.43
2017-03-02T08:29:03.844Z,9.51
2017-03-02T08:30:03.474Z,9.58
2017-03-02T08:31:03.899Z,9.58
2017-03-02T08:32:03.882Z,9.54
2017-03-02T08:33:03.935Z,9.72
2017-03-02T08:34:03.913Z,9.68
2017-03-02T08:35:03.928Z,9.73
2017-03-02T08:36:03.547Z,9.72
2017-03-02T08:37:03.965Z,9.66
2017-03-02T08:38:03.574Z,9.72
2017-03-02T08:39:03.591Z,9.79
2017-03-02T08:40:03.604Z,9.83
2017-03-02T08:41:04.014Z,9.8
2017-03-02T08:42:04.039Z,9.82
2017-03-02T08:43:04.074Z,9.82
2017-03-02T08:44:04.082Z,9.8
2017-03-02T08:45:04.069Z,9.82
2017-03-02T08:46:04.102Z,9.84
2017-03-02T08:47:04.120Z,9.82
2017-03-02T08:48:04.132Z,9.86
2017-03-02T08:49:03.951Z,9.77
2017-03-02T08:50:04.160Z,9.86
2017-03-02T08:51:04.196Z,9.82
2017-03-02T08:52:04.185Z,9.83
2017-03-02T08:53:03.803Z,9.8
2017-03-02T08:54:04.254Z,9.74
2017-03-02T08:55:04.234Z,9.84
2017-03-02T08:56:04.244Z,9.82
2017-03-02T08:57:04.264Z,9.8
2017-03-02T08:58:04.275Z,9.83
2017-03-02T08:59:04.286Z,9.86
2017-03-02T09:00:04.300Z,9.8
2017-03-02T09:01:04.322Z,9.82
2017-03-02T09:02:04.343Z,9.8
2017-03-02T09:03:04.341Z,9.8
2017-03-02T09:04:04.365Z,9.76
2017-03-02T09:05:04.374Z,9.79
2017-03-02T09:06:04.374Z,9.76
2017-03-02T09:07:04.409Z,9.68
2017-03-02T09:08:04.408Z,9.62
2017-03-02T09:09:04.432Z,9.64
2017-03-02T09:10:04.444Z,9.68
2017-03-02T09:11:04.587Z,9.79
2017-03-02T09:12:04.477Z,9.76
2017-03-02T09:13:04.088Z,9.66
2017-03-02T09:14:04.508Z,9.74
2017-03-02T09:15:04.538Z,9.73
2017-03-02T09:16:04.538Z,9.69
2017-03-02T09:17:04.541Z,9.68
2017-03-02T09:18:04.562Z,9.73
2017-03-02T09:19:04.580Z,9.72
2017-03-02T09:20:04.597Z,9.68
2017-03-02T09:21:04.630Z,9.86
2017-03-02T09:22:04.625Z,9.66
2017-03-02T09:23:04.251Z,9.72
2017-03-02T09:24:04.657Z,9.69
2017-03-02T09:25:04.664Z,9.64
2017-03-02T09:26:04.687Z,9.74
2017-03-02T09:27:04.703Z,9.72
2017-03-02T09:28:04.716Z,9.66
2017-03-02T09:29:04.722Z,9.68
2017-03-02T09:30:04.750Z,9.66
2017-03-02T09:31:04.753Z,9.65
2017-03-02T09:32:04.765Z,9.8
2017-03-02T09:33:04.794Z,9.79
2017-03-02T09:34:04.407Z,9.82
2017-03-02T09:35:04.808Z,9.82
2017-03-02T09:36:04.841Z,9.82
2017-03-02T09:37:04.865Z,9.92
2017-03-02T09:38:04.865Z,9.95
2017-03-02T09:39:04.888Z,9.91
2017-03-02T09:40:04.889Z,9.97
2017-03-02T09:41:04.919Z,9.97
2017-03-02T09:42:04.929Z,10.01
2017-03-02T09:43:04.935Z,10.13
2017-03-02T09:44:04.964Z,10.07
2017-03-02T09:45:04.976Z,10.12
2017-03-02T09:46:04.977Z,10.19
2017-03-02T09:47:04.992Z,10.12
2017-03-02T09:48:05.013Z,10.13
2017-03-02T09:49:05.017Z,10.13
2017-03-02T09:50:05.037Z,10.12
2017-03-02T09:51:05.056Z,10.09
2017-03-02T09:52:05.079Z,10.1
2017-03-02T09:53:05.090Z,10.13
2017-03-02T09:54:05.112Z,10.09
2017-03-02T09:55:05.111Z,10.16
2017-03-02T09:56:05.139Z,10.13
2017-03-02T09:57:04.756Z,10.16
2017-03-02T09:58:05.167Z,10.15
2017-03-02T09:59:05.175Z,10.19
2017-03-02T10:00:05.186Z,10.19
2017-03-02T10:01:05.210Z,10.19
2017-03-02T10:02:05.223Z,10.22
2017-03-02T10:03:05.263Z,10.26
2017-03-02T10:04:05.252Z,10.28
2017-03-02T10:05:05.279Z,10.33
2017-03-02T10:06:05.281Z,10.31
2017-03-02T10:07:05.313Z,10.35
2017-03-02T10:08:05.314Z,10.3
2017-03-02T10:09:05.322Z,10.31
2017-03-02T10:10:05.348Z,10.37
2017-03-02T10:11:05.361Z,10.34
2017-03-02T10:12:05.388Z,10.26
2017-03-02T10:13:05.383Z,10.31
2017-03-02T10:14:05.397Z,10.22
2017-03-02T10:15:05.528Z,10.31
2017-03-02T10:16:05.458Z,10.31
2017-03-02T10:17:05.471Z,10.31
2017-03-02T10:18:05.477Z,10.23
2017-03-02T10:19:05.480Z,10.28
2017-03-02T10:20:05.095Z,10.23
2017-03-02T10:21:05.634Z,10.16
2017-03-02T10:22:05.546Z,10.19
2017-03-02T10:23:05.556Z,10.13
2017-03-02T10:24:05.162Z,10.09
2017-03-02T10:25:05.565Z,10.13
2017-03-02T10:26:05.586Z,9.99
2017-03-02T10:27:05.591Z,10.07
2017-03-02T10:28:05.618Z,9.92
2017-03-02T10:29:05.743Z,9.94
2017-03-02T10:30:05.250Z,9.91
2017-03-02T10:31:05.664Z,9.89
2017-03-02T10:32:05.682Z,9.89
2017-03-02T10:33:05.688Z,9.82
2017-03-02T10:34:05.712Z,9.8
2017-03-02T10:35:05.711Z,9.82
2017-03-02T10:36:05.730Z,9.86
2017-03-02T10:37:05.745Z,9.79
2017-03-02T10:38:05.774Z,9.8
2017-03-02T10:39:05.934Z,9.82
2017-03-02T10:40:05.442Z,9.89
2017-03-02T10:41:05.812Z,9.89
2017-03-02T10:42:05.830Z,9.89
2017-03-02T10:43:05.849Z,9.92
2017-03-02T10:44:05.860Z,9.94
2017-03-02T10:45:05.471Z,9.98
2017-03-02T10:46:05.895Z,9.89
2017-03-02T10:47:05.900Z,10.02
2017-03-02T10:48:05.923Z,10.01
2017-03-02T10:49:05.941Z,10.05
2017-03-02T10:50:05.552Z,10.13
2017-03-02T10:51:06.146Z,10.2
2017-03-02T10:52:06.143Z,10.2
2017-03-02T10:53:06.155Z,10.26
2017-03-02T10:54:06.161Z,10.33
2017-03-02T10:55:05.732Z,10.26
2017-03-02T10:56:06.035Z,10.3
2017-03-02T10:57:06.044Z,10.31
2017-03-02T10:58:06.073Z,10.26
2017-03-02T10:59:06.082Z,10.41
2017-03-02T11:00:06.119Z,10.38
2017-03-02T11:01:06.128Z,10.37
2017-03-02T11:02:06.141Z,10.44
2017-03-02T11:03:06.154Z,10.42
2017-03-02T11:04:06.170Z,10.41
2017-03-02T11:05:06.182Z,10.41
2017-03-02T11:06:06.195Z,10.48
2017-03-02T11:07:06.193Z,10.49
2017-03-02T11:08:06.228Z,10.56
2017-03-02T11:09:06.238Z,10.56
2017-03-02T11:10:06.467Z,10.57
2017-03-02T11:11:06.304Z,10.54
2017-03-02T11:12:06.324Z,10.6
2017-03-02T11:13:06.297Z,10.57
2017-03-02T11:14:06.331Z,10.69
2017-03-02T11:15:05.943Z,10.68
2017-03-02T11:16:06.362Z,10.74
2017-03-02T11:17:06.447Z,10.71
2017-03-02T11:18:06.456Z,10.78
2017-03-02T11:19:06.456Z,10.79
2017-03-02T11:20:06.464Z,10.78
2017-03-02T11:21:06.428Z,10.78
2017-03-02T11:22:06.454Z,10.79
2017-03-02T11:23:06.458Z,10.75
2017-03-02T11:24:06.469Z,10.76
2017-03-02T11:25:06.514Z,10.82
2017-03-02T11:26:06.495Z,10.86
2017-03-02T11:27:06.129Z,10.94
2017-03-02T11:28:06.131Z,10.92
2017-03-02T11:29:06.542Z,10.96
2017-03-02T11:30:06.555Z,10.97
2017-03-02T11:31:06.577Z,11.02
2017-03-02T11:32:06.593Z,11
2017-03-02T11:33:06.635Z,11.02
2017-03-02T11:34:06.642Z,10.94
2017-03-02T11:35:06.657Z,11.05
2017-03-02T11:36:06.666Z,11.12
2017-03-02T11:37:06.288Z,11.12
2017-03-02T11:38:06.684Z,11.22
2017-03-02T11:39:06.697Z,11.19
2017-03-02T11:40:06.712Z,11.17
2017-03-02T11:41:06.742Z,11.22
2017-03-02T11:42:06.949Z,11.12
2017-03-02T11:43:06.762Z,11.18
2017-03-02T11:44:06.773Z,11.14
2017-03-02T11:45:06.800Z,11.19
2017-03-02T11:46:06.831Z,11.18
2017-03-02T11:47:06.824Z,11.12
2017-03-02T11:48:06.952Z,11.14
2017-03-02T11:49:06.860Z,11.12
2017-03-02T11:50:06.990Z,11.12
2017-03-02T11:51:06.890Z,11.19
2017-03-02T11:52:07.039Z,11.12
2017-03-02T11:53:07.081Z,11.1
2017-03-02T11:54:07.087Z,11.15
2017-03-02T11:55:07.088Z,11.15
2017-03-02T11:56:06.689Z,11.14
2017-03-02T11:57:07.066Z,11.15
2017-03-02T11:58:07.080Z,11.12
2017-03-02T11:59:07.094Z,11.17
2017-03-02T12:00:07.032Z,11.07
2017-03-02T12:01:07.054Z,11.14
2017-03-02T12:02:07.064Z,11.11
2017-03-02T12:03:06.703Z,11.05
2017-03-02T12:04:07.095Z,11.08
2017-03-02T12:05:07.107Z,10.99
2017-03-02T12:06:07.117Z,10.99
2017-03-02T12:07:07.137Z,11.02
2017-03-02T12:08:07.158Z,10.96
2017-03-02T12:09:07.285Z,10.87
2017-03-02T12:10:07.310Z,10.94
2017-03-02T12:11:07.292Z,10.92
2017-03-02T12:12:07.063Z,10.93
2017-03-02T12:13:07.322Z,10.92
2017-03-02T12:14:07.339Z,10.93
2017-03-02T12:15:07.402Z,10.92
2017-03-02T12:16:07.423Z,10.86
2017-03-02T12:17:07.415Z,10.84
2017-03-02T12:18:07.427Z,10.81
2017-03-02T12:19:07.421Z,10.81
2017-03-02T12:20:07.432Z,10.86
2017-03-02T12:21:07.577Z,10.82
2017-03-02T12:22:07.192Z,10.79
2017-03-02T12:23:07.588Z,10.81
2017-03-02T12:24:07.609Z,10.75
2017-03-02T12:25:07.588Z,10.81
2017-03-02T12:26:07.585Z,10.81
2017-03-02T12:27:07.594Z,10.81
2017-03-02T12:28:07.593Z,10.78
2017-03-02T12:29:07.599Z,10.79
2017-03-02T12:30:07.622Z,10.79
2017-03-02T12:31:07.227Z,10.82
2017-03-02T12:32:07.213Z,10.74
2017-03-02T12:33:07.254Z,10.79
2017-03-02T12:34:07.617Z,10.76
2017-03-02T12:35:07.606Z,10.76
2017-03-02T12:36:07.347Z,10.81
2017-03-02T12:37:07.734Z,10.78
2017-03-02T12:38:07.633Z,10.76
2017-03-02T12:39:07.651Z,10.78
2017-03-02T12:40:07.663Z,10.75
2017-03-02T12:41:07.681Z,10.78
2017-03-02T12:42:07.313Z,10.74
2017-03-02T12:43:07.727Z,10.74
2017-03-02T12:44:07.822Z,10.78
2017-03-02T12:45:07.443Z,10.76
2017-03-02T12:46:07.833Z,10.78
2017-03-02T12:47:07.865Z,10.74
2017-03-02T12:48:07.453Z,10.72
2017-03-02T12:49:07.858Z,10.71
2017-03-02T12:50:07.866Z,10.75
2017-03-02T12:51:07.877Z,10.68
2017-03-02T12:52:07.486Z,10.61
2017-03-02T12:53:07.986Z,10.63
2017-03-02T12:54:07.997Z,10.68
2017-03-02T12:55:08.019Z,10.69
2017-03-02T12:56:07.527Z,10.57
2017-03-02T12:57:08.056Z,10.56
2017-03-02T12:58:07.671Z,10.56
2017-03-02T12:59:07.976Z,10.51
2017-03-02T13:00:07.593Z,10.4
2017-03-02T13:01:07.992Z,10.41
2017-03-02T13:02:07.703Z,10.28
2017-03-02T13:03:08.043Z,10.28
2017-03-02T13:04:08.095Z,10.31
2017-03-02T13:05:07.790Z,10.33
2017-03-02T13:06:07.794Z,10.3
2017-03-02T13:07:08.177Z,10.25
2017-03-02T13:08:08.341Z,10.25
2017-03-02T13:09:08.344Z,10.16
2017-03-02T13:10:08.361Z,10.13
2017-03-02T13:11:08.351Z,10.23
2017-03-02T13:12:08.378Z,10.13
2017-03-02T13:13:08.385Z,10.19
2017-03-02T13:14:08.014Z,10.15